Time;durP1;ratioP1;P1;durP2;ratioP2;P2;SDS_P1;SDS_P2;PMS_P1;PMS_P2;Temp;Humidity;BMP_temperature;BMP_pressure;BME280_temperature;BME280_humidity;BME280_pressure;Samples;Min_cycle;Max_cycle;Signal;HPM_P1;HPM_P2
2023/01/07 00:00:49;;;;;;;0.63;0.32;;;18.00;93.40;;;;;;5026624;28;46524;-69
2023/01/07 00:03:16;;;;;;;0.50;0.30;;;18.00;93.40;;;;;;5029107;28;45480;-69
2023/01/07 00:05:44;;;;;;;0.80;0.22;;;18.10;93.40;;;;;;5029383;28;45373;-69
2023/01/07 00:08:12;;;;;;;0.50;0.38;;;18.10;93.30;;;;;;5030774;28;45539;-69
2023/01/07 00:10:38;;;;;;;0.20;0.20;;;18.10;93.20;;;;;;5031298;28;46590;-70
2023/01/07 00:13:05;;;;;;;1.27;0.38;;;18.10;93.30;;;;;;5025944;28;45365;-69
2023/01/07 00:15:33;;;;;;;0.35;0.20;;;18.10;93.20;;;;;;5030078;28;45322;-69
2023/01/07 00:18:00;;;;;;;0.68;0.35;;;18.10;93.20;;;;;;5029240;28;45254;-69
2023/01/07 00:20:27;;;;;;;0.55;0.40;;;18.10;93.10;;;;;;5029775;28;46083;-69
2023/01/07 00:22:53;;;;;;;0.20;0.20;;;18.10;93.10;;;;;;5027102;28;45325;-69
2023/01/07 00:25:20;;;;;;;0.82;0.30;;;18.10;93.10;;;;;;5031870;28;45301;-69
2023/01/07 00:27:47;;;;;;;0.20;0.20;;;18.10;93.00;;;;;;5033763;28;45489;-70
2023/01/07 00:30:14;;;;;;;0.10;0.10;;;18.10;93.00;;;;;;5034066;28;46643;-69
2023/01/07 00:32:58;;;;;;;0.73;0.40;;;18.10;93.00;;;;;;5034127;28;45365;-69
2023/01/07 00:35:25;;;;;;;0.35;0.30;;;18.10;93.00;;;;;;5030947;28;45516;-69
2023/01/07 00:37:53;;;;;;;0.20;0.20;;;18.10;93.10;;;;;;5031876;28;45476;-69
2023/01/07 00:40:20;;;;;;;0.50;0.20;;;18.10;93.10;;;;;;5031980;28;47071;-69
2023/01/07 00:43:00;;;;;;;0.20;0.20;;;18.10;93.10;;;;;;5031979;28;45369;-69
2023/01/07 00:45:28;;;;;;;0.20;0.17;;;18.10;93.10;;;;;;5031890;28;45310;-69
2023/01/07 00:47:57;;;;;;;0.60;0.20;;;18.00;93.00;;;;;;5029719;28;45534;-69
2023/01/07 00:50:26;;;;;;;0.25;0.25;;;18.00;92.90;;;;;;5028530;28;46284;-69
2023/01/07 00:52:54;;;;;;;0.55;0.28;;;18.00;93.00;;;;;;5026425;28;45294;-69
2023/01/07 00:55:21;;;;;;;0.10;0.10;;;18.00;92.90;;;;;;5031047;28;45466;-69
2023/01/07 00:57:48;;;;;;;0.55;0.20;;;18.00;92.90;;;;;;5032407;28;45619;-69
2023/01/07 01:00:17;;;;;;;0.70;0.30;;;18.00;93.00;;;;;;5030495;28;46585;-69
2023/01/07 01:02:44;;;;;;;0.20;0.20;;;18.10;93.00;;;;;;5030290;28;45338;-69
2023/01/07 01:05:13;;;;;;;0.38;0.20;;;18.10;93.10;;;;;;5030436;28;45398;-69
2023/01/07 01:07:40;;;;;;;0.30;0.30;;;18.10;93.10;;;;;;5035307;28;45330;-69
2023/01/07 01:10:09;;;;;;;0.10;0.10;;;18.10;93.10;;;;;;5031698;28;46628;-69
2023/01/07 01:12:36;;;;;;;0.55;0.32;;;18.10;93.00;;;;;;5031697;28;45338;-68
2023/01/07 01:15:05;;;;;;;0.10;0.10;;;18.10;93.10;;;;;;5030151;28;45541;-69
2023/01/07 01:17:31;;;;;;;0.95;0.20;;;18.10;93.00;;;;;;5031700;28;45424;-69
2023/01/07 01:19:58;;;;;;;0.30;0.30;;;18.10;93.00;;;;;;5033258;28;45394;-68
2023/01/07 01:22:26;;;;;;;0.63;0.30;;;18.10;93.00;;;;;;5032290;28;45361;-68
2023/01/07 01:24:53;;;;;;;0.45;0.25;;;18.10;93.30;;;;;;5031978;28;45427;-69
2023/01/07 01:27:20;;;;;;;0.30;0.30;;;18.10;93.00;;;;;;5029465;28;45499;-70
2023/01/07 01:29:47;;;;;;;0.50;0.30;;;18.10;92.90;;;;;;5027636;28;45393;-69
2023/01/07 01:32:14;;;;;;;0.20;0.20;;;18.10;92.80;;;;;;5028160;28;45405;-69
2023/01/07 01:34:41;;;;;;;0.52;0.28;;;18.10;92.90;;;;;;5024357;28;45499;-70
2023/01/07 01:37:07;;;;;;;0.75;0.40;;;18.00;92.80;;;;;;5016023;28;45474;-69
2023/01/07 01:39:35;;;;;;;0.20;0.20;;;18.10;92.90;;;;;;5018810;28;45467;-69
2023/01/07 01:42:02;;;;;;;0.35;0.20;;;18.10;93.00;;;;;;5022676;28;45393;-69
2023/01/07 01:44:37;;;;;;;0.40;0.20;;;18.00;92.80;;;;;;5024092;28;45464;-69
2023/01/07 01:47:08;;;;;;;0.50;0.30;;;18.10;92.90;;;;;;5015819;28;45367;-70
2023/01/07 01:49:38;;;;;;;0.30;0.20;;;18.00;92.90;;;;;;5023454;28;45266;-69
2023/01/07 01:52:10;;;;;;;0.30;0.20;;;18.00;92.70;;;;;;5020727;28;45503;-69
2023/01/07 01:54:40;;;;;;;0.55;0.20;;;18.00;92.80;;;;;;5023953;28;45353;-69
2023/01/07 01:57:09;;;;;;;0.65;0.30;;;18.00;92.80;;;;;;5023600;28;45530;-69
2023/01/07 01:59:40;;;;;;;2.03;0.40;;;18.00;92.70;;;;;;5023045;28;47482;-69
2023/01/07 02:02:08;;;;;;;0.10;0.10;;;18.00;93.20;;;;;;5023671;28;45343;-69
2023/01/07 02:04:36;;;;;;;0.40;0.20;;;18.00;92.80;;;;;;5023224;28;45381;-69
2023/01/07 02:07:07;;;;;;;0.20;0.20;;;18.00;92.80;;;;;;5023861;28;45219;-69
2023/01/07 02:09:33;;;;;;;0.20;0.20;;;18.10;92.90;;;;;;5021838;28;48207;-70
2023/01/07 02:12:10;;;;;;;0.30;0.20;;;18.10;92.80;;;;;;5020290;28;45341;-69
2023/01/07 02:14:52;;;;;;;0.40;0.30;;;18.10;92.80;;;;;;5015202;28;45353;-69
2023/01/07 02:17:25;;;;;;;0.45;0.10;;;18.10;92.80;;;;;;5023463;28;45327;-69
2023/01/07 02:20:27;;;;;;;4.10;0.25;;;18.10;92.80;;;;;;5022302;28;45385;-69
2023/01/07 02:23:25;;;;;;;0.22;0.20;;;18.10;92.70;;;;;;4995575;28;45307;-70
2023/01/07 02:26:26;;;;;;;0.55;0.30;;;18.10;92.70;;;;;;5018356;28;45350;-69
2023/01/07 02:29:31;;;;;;;0.30;0.30;;;18.10;92.70;;;;;;5020461;28;45416;-69
2023/01/07 02:32:25;;;;;;;0.20;0.10;;;18.10;92.60;;;;;;4991935;28;46403;-70
2023/01/07 02:35:03;;;;;;;0.22;0.10;;;18.10;92.60;;;;;;5020841;28;46031;-69
2023/01/07 02:37:38;;;;;;;0.13;0.10;;;18.10;92.60;;;;;;5022719;28;45639;-69
2023/01/07 02:40:13;;;;;;;0.22;0.20;;;18.10;92.50;;;;;;5023258;28;45282;-69
2023/01/07 02:42:51;;;;;;;0.13;0.13;;;18.10;92.60;;;;;;5022702;28;46291;-69
2023/01/07 02:45:27;;;;;;;0.20;0.15;;;18.10;92.50;;;;;;5022367;28;45757;-69
2023/01/07 02:47:58;;;;;;;0.38;0.30;;;18.10;92.60;;;;;;5021965;28;45503;-69
2023/01/07 02:50:25;;;;;;;0.20;0.17;;;18.10;92.60;;;;;;5022894;28;45458;-69
2023/01/07 02:52:52;;;;;;;0.40;0.30;;;18.10;92.50;;;;;;5022888;28;45421;-69
2023/01/07 02:55:22;;;;;;;1.85;0.30;;;18.10;92.50;;;;;;5021626;28;45584;-69
2023/01/07 02:58:28;;;;;;;0.68;0.30;;;18.10;92.50;;;;;;5023052;28;45399;-69
2023/01/07 03:01:19;;;;;;;0.30;0.22;;;18.00;92.40;;;;;;5023176;28;45590;-70
2023/01/07 03:04:05;;;;;;;0.65;0.20;;;18.00;92.50;;;;;;5023117;28;45465;-69
2023/01/07 03:06:49;;;;;;;0.30;0.20;;;18.10;92.60;;;;;;5022467;28;45275;-69
2023/01/07 03:09:23;;;;;;;0.10;0.10;;;18.10;92.70;;;;;;5022558;28;45347;-69
2023/01/07 03:11:57;;;;;;;0.20;0.20;;;18.10;92.60;;;;;;5023360;28;45472;-69
2023/01/07 03:14:32;;;;;;;0.20;0.20;;;18.10;92.60;;;;;;5022963;28;47102;-69
2023/01/07 03:17:02;;;;;;;0.73;0.30;;;18.10;92.60;;;;;;5022923;28;45630;-69
2023/01/07 03:19:34;;;;;;;0.10;0.10;;;18.10;92.60;;;;;;5022079;28;45441;-70
2023/01/07 03:22:04;;;;;;;0.47;0.30;;;18.10;92.60;;;;;;5008353;28;45459;-69
2023/01/07 03:24:32;;;;;;;0.35;0.32;;;18.10;92.60;;;;;;5002452;28;46556;-69
2023/01/07 03:27:02;;;;;;;0.75;0.30;;;18.10;92.50;;;;;;5002692;28;45322;-69
2023/01/07 03:29:31;;;;;;;0.55;0.38;;;18.10;92.50;;;;;;5012869;28;45295;-70
2023/01/07 03:32:03;;;;;;;0.45;0.20;;;18.10;92.50;;;;;;5022881;28;45353;-69
2023/01/07 03:34:34;;;;;;;0.10;0.10;;;18.10;92.50;;;;;;5022542;28;46171;-69
2023/01/07 03:37:04;;;;;;;0.32;0.20;;;18.10;92.40;;;;;;5020556;28;45390;-69
2023/01/07 03:39:34;;;;;;;0.60;0.30;;;18.10;92.30;;;;;;5014518;28;45226;-69
2023/01/07 03:44:50;;;;;;;0.20;0.20;;;18.10;92.30;;;;;;5022947;28;45758;-69
2023/01/07 03:47:16;;;;;;;0.30;0.30;;;18.10;92.30;;;;;;5021009;28;45270;-70
2023/01/07 03:49:45;;;;;;;0.20;0.20;;;18.10;92.40;;;;;;5021914;28;45444;-69
2023/01/07 03:52:12;;;;;;;0.20;0.10;;;18.10;92.30;;;;;;5023098;28;45296;-69
2023/01/07 03:54:38;;;;;;;0.75;0.22;;;18.10;92.30;;;;;;5021583;28;46133;-70
2023/01/07 03:57:05;;;;;;;0.60;0.38;;;18.00;92.20;;;;;;5022045;28;45377;-69
2023/01/07 03:59:32;;;;;;;1.00;0.20;;;18.10;92.20;;;;;;5023332;28;45390;-69
2023/01/07 04:01:59;;;;;;;0.55;0.20;;;18.00;92.10;;;;;;5025937;28;45564;-70
2023/01/07 04:04:25;;;;;;;0.20;0.20;;;18.00;92.10;;;;;;5024816;28;48441;-69
2023/01/07 04:06:54;;;;;;;0.20;0.20;;;18.10;92.30;;;;;;5025495;28;45827;-69
2023/01/07 04:09:20;;;;;;;0.40;0.30;;;18.00;92.30;;;;;;5025067;28;45268;-69
2023/01/07 04:11:47;;;;;;;0.95;0.20;;;18.10;92.30;;;;;;5018601;28;45471;-69
2023/01/07 04:14:14;;;;;;;0.38;0.30;;;18.10;92.30;;;;;;5019974;28;46274;-69
2023/01/07 04:16:41;;;;;;;0.20;0.20;;;18.10;92.30;;;;;;5024289;28;45409;-69
2023/01/07 04:19:08;;;;;;;0.28;0.22;;;18.00;92.10;;;;;;5023711;28;45488;-69
2023/01/07 04:21:35;;;;;;;0.20;0.20;;;18.00;92.00;;;;;;5022355;28;45203;-69
2023/01/07 04:24:03;;;;;;;0.30;0.28;;;18.00;92.10;;;;;;5018759;28;46249;-69
2023/01/07 04:26:31;;;;;;;0.10;0.10;;;18.00;92.00;;;;;;5024365;28;45458;-69
2023/01/07 04:28:57;;;;;;;0.82;0.43;;;18.10;92.00;;;;;;5023924;28;45453;-69
2023/01/07 04:31:24;;;;;;;0.40;0.30;;;18.10;92.00;;;;;;5025383;28;45294;-69
2023/01/07 04:33:51;;;;;;;0.20;0.20;;;18.00;92.00;;;;;;5023561;28;45473;-70
2023/01/07 04:36:18;;;;;;;0.85;0.30;;;18.10;91.90;;;;;;5024460;28;45438;-70
2023/01/07 04:38:44;;;;;;;0.35;0.20;;;18.00;91.80;;;;;;5025252;28;45401;-69
2023/01/07 04:41:12;;;;;;;0.60;0.38;;;18.00;91.80;;;;;;5024835;28;45462;-69
2023/01/07 04:43:39;;;;;;;0.50;0.20;;;18.00;91.60;;;;;;5025056;28;46392;-70
2023/01/07 04:46:06;;;;;;;0.17;0.10;;;18.00;91.50;;;;;;5024995;28;45268;-69
2023/01/07 04:48:33;;;;;;;0.30;0.30;;;18.00;91.60;;;;;;5022515;28;45488;-69
2023/01/07 04:51:00;;;;;;;0.68;0.30;;;18.00;91.60;;;;;;5023922;28;45369;-69
2023/01/07 04:53:26;;;;;;;1.00;0.45;;;18.00;91.60;;;;;;5016637;28;46651;-69
2023/01/07 04:55:54;;;;;;;0.30;0.20;;;18.00;91.40;;;;;;5025014;28;45196;-69
2023/01/07 04:58:22;;;;;;;0.70;0.40;;;18.00;91.50;;;;;;5023805;28;45389;-69
2023/01/07 05:00:49;;;;;;;0.50;0.40;;;18.00;91.30;;;;;;5025213;28;45463;-70
2023/01/07 05:03:16;;;;;;;0.40;0.30;;;18.00;91.30;;;;;;5024248;28;47543;-70
2023/01/07 05:05:42;;;;;;;1.00;0.40;;;18.00;91.30;;;;;;5025143;28;45483;-69
2023/01/07 05:08:09;;;;;;;1.23;0.20;;;18.00;91.20;;;;;;5023877;28;45444;-69
2023/01/07 05:10:36;;;;;;;0.50;0.30;;;18.00;91.40;;;;;;5024851;28;45489;-69
2023/01/07 05:13:04;;;;;;;0.30;0.30;;;18.00;91.40;;;;;;5024763;28;47510;-71
2023/01/07 05:15:32;;;;;;;0.20;0.20;;;18.00;91.50;;;;;;5024288;28;45524;-69
2023/01/07 05:17:59;;;;;;;0.50;0.30;;;18.00;91.60;;;;;;5024247;28;45349;-69
2023/01/07 05:20:25;;;;;;;1.50;0.30;;;18.00;91.50;;;;;;5013941;28;45298;-69
2023/01/07 05:22:52;;;;;;;0.75;0.30;;;18.00;91.50;;;;;;5004959;28;46244;-69
2023/01/07 05:25:19;;;;;;;0.88;0.40;;;18.00;91.50;;;;;;5004669;28;45502;-69
2023/01/07 05:27:46;;;;;;;0.68;0.30;;;18.00;91.50;;;;;;5008910;28;45426;-69
2023/01/07 05:30:13;;;;;;;0.75;0.30;;;18.00;91.40;;;;;;5024240;28;45403;-69
2023/01/07 05:32:41;;;;;;;0.95;0.30;;;18.00;91.40;;;;;;5023367;28;46585;-69
2023/01/07 05:35:08;;;;;;;1.13;0.40;;;18.10;91.40;;;;;;5023367;28;45400;-70
2023/01/07 05:37:35;;;;;;;0.20;0.20;;;18.00;91.40;;;;;;5023966;28;45463;-69
2023/01/07 05:40:02;;;;;;;0.60;0.40;;;18.10;91.30;;;;;;5023893;28;45335;-69
2023/01/07 05:42:29;;;;;;;0.38;0.30;;;18.00;91.30;;;;;;5023975;28;47546;-70
2023/01/07 05:44:55;;;;;;;1.27;0.30;;;18.00;91.30;;;;;;5023691;28;45830;-69
2023/01/07 05:47:22;;;;;;;0.60;0.40;;;18.00;91.30;;;;;;5023084;28;45323;-69
2023/01/07 05:49:50;;;;;;;0.30;0.20;;;18.00;91.30;;;;;;5023332;28;45364;-70
2023/01/07 05:52:17;;;;;;;0.75;0.40;;;18.00;91.30;;;;;;5024252;28;46014;-69
2023/01/07 05:54:44;;;;;;;1.00;0.30;;;18.00;91.30;;;;;;5023546;28;45350;-69
2023/01/07 05:57:11;;;;;;;0.40;0.40;;;18.00;91.30;;;;;;5024174;28;45392;-69
2023/01/07 05:59:37;;;;;;;0.50;0.20;;;18.00;91.30;;;;;;5023869;28;45447;-69
2023/01/07 06:02:04;;;;;;;2.42;0.40;;;18.00;91.10;;;;;;5023390;28;46600;-69
2023/01/07 06:04:33;;;;;;;0.98;0.45;;;18.00;91.00;;;;;;5023887;28;45383;-70
2023/01/07 06:07:01;;;;;;;0.85;0.40;;;18.00;91.00;;;;;;5023832;28;45384;-70
2023/01/07 06:09:28;;;;;;;1.63;0.47;;;18.00;91.00;;;;;;5023336;28;45466;-70
2023/01/07 06:11:55;;;;;;;0.68;0.30;;;18.00;91.10;;;;;;5023319;28;46256;-69
2023/01/07 06:14:22;;;;;;;0.20;0.20;;;18.00;91.20;;;;;;5023239;28;45274;-69
2023/01/07 06:16:48;;;;;;;0.55;0.40;;;18.00;91.20;;;;;;5023415;28;45362;-69
2023/01/07 06:19:15;;;;;;;0.20;0.20;;;18.00;91.10;;;;;;5016082;28;45339;-70
2023/01/07 06:21:42;;;;;;;1.95;0.47;;;18.00;91.10;;;;;;5022824;28;45482;-69
2023/01/07 06:24:11;;;;;;;2.05;0.40;;;18.00;91.10;;;;;;5022812;28;45387;-69
2023/01/07 06:26:38;;;;;;;1.33;0.40;;;18.00;91.10;;;;;;5023375;28;45379;-70
2023/01/07 06:29:06;;;;;;;0.98;0.40;;;18.00;91.10;;;;;;5022624;28;45413;-69
2023/01/07 06:31:32;;;;;;;1.02;0.50;;;18.10;91.10;;;;;;5022057;28;46287;-69
2023/01/07 06:33:59;;;;;;;0.43;0.40;;;18.00;91.10;;;;;;5021998;28;45464;-69
2023/01/07 06:36:26;;;;;;;0.50;0.30;;;18.10;91.10;;;;;;5014147;28;45362;-69
2023/01/07 06:38:53;;;;;;;0.30;0.30;;;18.10;91.00;;;;;;5022111;28;45285;-69
2023/01/07 06:41:21;;;;;;;0.40;0.28;;;18.00;91.00;;;;;;5022085;28;46576;-69
2023/01/07 06:43:48;;;;;;;0.52;0.40;;;18.00;91.00;;;;;;5022831;28;45351;-69
2023/01/07 06:46:14;;;;;;;0.75;0.32;;;18.00;91.10;;;;;;5023567;28;45422;-69
2023/01/07 06:48:41;;;;;;;0.60;0.47;;;18.00;91.00;;;;;;5020523;28;45446;-69
2023/01/07 06:51:08;;;;;;;0.32;0.30;;;18.00;91.00;;;;;;5023501;28;45318;-69
2023/01/07 06:53:35;;;;;;;0.20;0.20;;;18.00;91.00;;;;;;5022864;28;46096;-69
2023/01/07 06:56:01;;;;;;;1.17;0.30;;;18.00;90.80;;;;;;5023577;28;45412;-70
2023/01/07 06:58:29;;;;;;;0.82;0.40;;;18.00;90.80;;;;;;5022374;28;45583;-70
2023/01/07 07:00:56;;;;;;;0.47;0.40;;;18.00;90.80;;;;;;5022498;28;45394;-69
2023/01/07 07:03:23;;;;;;;0.40;0.38;;;18.00;90.80;;;;;;5022118;28;45282;-69
2023/01/07 07:05:50;;;;;;;0.65;0.40;;;18.00;90.60;;;;;;5022839;28;45417;-69
2023/01/07 07:08:17;;;;;;;0.40;0.40;;;18.00;90.50;;;;;;5022479;28;45237;-69
2023/01/07 07:10:43;;;;;;;0.32;0.30;;;18.00;90.60;;;;;;5022301;28;48295;-69
2023/01/07 07:13:10;;;;;;;0.32;0.30;;;18.00;90.60;;;;;;5023157;28;45274;-69
2023/01/07 07:15:38;;;;;;;0.73;0.30;;;18.00;90.60;;;;;;5023027;28;45254;-70
2023/01/07 07:18:05;;;;;;;0.60;0.38;;;18.00;90.80;;;;;;5021463;28;45579;-69
2023/01/07 07:20:32;;;;;;;0.43;0.40;;;18.00;90.80;;;;;;5003047;28;47265;-70
2023/01/07 07:22:59;;;;;;;0.50;0.38;;;18.00;90.70;;;;;;5001990;28;45275;-69
2023/01/07 07:25:26;;;;;;;0.68;0.35;;;18.00;90.70;;;;;;5003152;28;45502;-69
2023/01/07 07:27:52;;;;;;;1.95;0.38;;;18.00;90.80;;;;;;5016178;28;45563;-69
2023/01/07 07:30:19;;;;;;;0.68;0.47;;;18.00;90.70;;;;;;5021786;28;47494;-70
2023/01/07 07:32:48;;;;;;;0.82;0.32;;;18.00;90.70;;;;;;5020674;28;45707;-69
2023/01/07 07:35:14;;;;;;;1.15;0.52;;;18.00;90.60;;;;;;5021752;28;45417;-71
2023/01/07 07:37:41;;;;;;;0.77;0.50;;;18.00;90.70;;;;;;5021987;28;45329;-69
2023/01/07 07:40:09;;;;;;;0.22;0.22;;;18.00;90.70;;;;;;5020991;28;46426;-69
2023/01/07 07:42:38;;;;;;;0.70;0.43;;;18.00;90.80;;;;;;5019859;28;45376;-69
2023/01/07 07:45:06;;;;;;;0.82;0.40;;;18.00;90.90;;;;;;5021705;28;45369;-69
2023/01/07 07:47:33;;;;;;;0.55;0.50;;;18.00;90.80;;;;;;5018073;28;45460;-69
2023/01/07 07:50:01;;;;;;;1.15;0.45;;;18.00;90.90;;;;;;5018962;28;46605;-69
2023/01/07 07:52:27;;;;;;;0.73;0.40;;;18.00;90.80;;;;;;5015389;28;45355;-69
2023/01/07 07:54:54;;;;;;;0.90;0.40;;;17.90;90.70;;;;;;5022270;28;45315;-69
2023/01/07 07:57:21;;;;;;;0.47;0.43;;;17.90;90.80;;;;;;5015965;28;45507;-68
2023/01/07 07:59:48;;;;;;;0.52;0.40;;;17.90;90.80;;;;;;5017592;28;47097;-69
2023/01/07 08:02:15;;;;;;;0.47;0.25;;;17.90;90.80;;;;;;5021440;28;45541;-69
2023/01/07 08:04:42;;;;;;;1.08;0.43;;;17.90;90.70;;;;;;5020425;28;45286;-70
2023/01/07 08:07:12;;;;;;;0.90;0.32;;;17.90;90.70;;;;;;5022170;28;45278;-69
2023/01/07 08:09:39;;;;;;;0.40;0.40;;;17.90;90.60;;;;;;5020341;28;45463;-69
2023/01/07 08:12:06;;;;;;;0.70;0.30;;;17.90;90.60;;;;;;5021976;28;45472;-69
2023/01/07 08:14:33;;;;;;;0.63;0.30;;;17.80;90.60;;;;;;5022338;28;45441;-68
2023/01/07 08:17:00;;;;;;;0.50;0.30;;;17.80;90.60;;;;;;5021163;28;45273;-68
2023/01/07 08:19:27;;;;;;;0.20;0.20;;;17.90;90.50;;;;;;5020736;28;45500;-69
2023/01/07 08:21:54;;;;;;;0.57;0.55;;;17.90;90.00;;;;;;5020149;28;45554;-69
2023/01/07 08:24:22;;;;;;;0.95;0.40;;;17.80;87.80;;;;;;5020834;28;45546;-69
2023/01/07 08:26:49;;;;;;;0.28;0.28;;;17.80;87.00;;;;;;5021723;28;45367;-69
2023/01/07 08:29:16;;;;;;;0.68;0.40;;;17.90;87.10;;;;;;5020472;28;46562;-69
2023/01/07 08:31:42;;;;;;;0.47;0.35;;;17.90;85.60;;;;;;5020786;28;45338;-69
2023/01/07 08:34:09;;;;;;;0.45;0.40;;;17.80;86.70;;;;;;5021044;28;45441;-70
2023/01/07 08:36:36;;;;;;;6.30;0.82;;;17.80;85.10;;;;;;5020914;28;45540;-69
2023/01/07 08:39:03;;;;;;;4.45;0.65;;;17.90;89.20;;;;;;5020642;28;46628;-70
2023/01/07 08:41:31;;;;;;;3.00;0.77;;;17.90;88.50;;;;;;5021083;28;45802;-69
2023/01/07 08:43:58;;;;;;;1.92;0.57;;;17.80;88.80;;;;;;5021887;28;45352;-70
2023/01/07 08:46:24;;;;;;;4.93;0.70;;;17.80;88.80;;;;;;5023648;28;45602;-69
2023/01/07 08:48:51;;;;;;;2.63;0.77;;;17.80;88.70;;;;;;5022200;28;47167;-69
2023/01/07 08:51:18;;;;;;;1.95;0.73;;;17.80;88.40;;;;;;5024357;28;45392;-70
2023/01/07 08:53:46;;;;;;;2.10;0.80;;;17.70;88.20;;;;;;5024431;28;45372;-70
2023/01/07 08:56:13;;;;;;;4.47;0.40;;;17.70;88.20;;;;;;5022866;28;45618;-69
2023/01/07 08:58:41;;;;;;;1.38;0.40;;;17.70;88.00;;;;;;5023576;28;48039;-69
2023/01/07 09:01:08;;;;;;;3.97;0.80;;;17.70;87.80;;;;;;5023965;28;45663;-69
2023/01/07 09:03:35;;;;;;;0.85;0.40;;;17.70;87.20;;;;;;5022577;28;45470;-69
2023/01/07 09:06:02;;;;;;;2.08;0.50;;;17.70;86.30;;;;;;5023303;28;45456;-70
2023/01/07 09:08:29;;;;;;;0.73;0.57;;;17.80;86.80;;;;;;5022914;28;46358;-71
2023/01/07 09:10:56;;;;;;;0.57;0.43;;;17.80;87.10;;;;;;5021252;28;45336;-71
2023/01/07 09:13:22;;;;;;;1.05;0.40;;;17.80;87.10;;;;;;5023175;28;45562;-70
2023/01/07 09:15:51;;;;;;;0.88;0.47;;;17.80;87.30;;;;;;5022478;28;45346;-71
2023/01/07 09:18:18;;;;;;;0.95;0.40;;;17.80;87.70;;;;;;5013201;28;47678;-70
2023/01/07 09:20:45;;;;;;;0.77;0.43;;;17.80;87.90;;;;;;5002308;28;45440;-70
2023/01/07 09:23:12;;;;;;;1.30;0.60;;;17.90;88.10;;;;;;5002842;28;45379;-71
2023/01/07 09:25:39;;;;;;;0.50;0.30;;;17.90;88.10;;;;;;5007547;28;45355;-70
2023/01/07 09:28:05;;;;;;;1.50;0.68;;;17.90;88.00;;;;;;5024195;28;45494;-70
2023/01/07 09:30:32;;;;;;;0.70;0.57;;;17.90;88.10;;;;;;5023982;28;45445;-70
2023/01/07 09:33:00;;;;;;;1.52;0.60;;;17.90;88.00;;;;;;5024457;28;45593;-70
2023/01/07 09:35:27;;;;;;;1.38;0.45;;;17.90;88.20;;;;;;5024448;28;45516;-70
2023/01/07 09:37:54;;;;;;;0.30;0.30;;;18.00;88.00;;;;;;5024499;28;47389;-71
2023/01/07 09:40:25;;;;;;;0.82;0.40;;;18.00;87.70;;;;;;5023179;28;45405;-70
2023/01/07 09:42:58;;;;;;;0.50;0.40;;;18.00;88.80;;;;;;5024208;28;45287;-70
2023/01/07 09:45:29;;;;;;;0.40;0.40;;;18.00;87.70;;;;;;5023909;28;45439;-70
2023/01/07 09:47:58;;;;;;;0.50;0.40;;;18.00;87.30;;;;;;5024170;28;46634;-70
2023/01/07 09:50:40;;;;;;;0.40;0.40;;;18.00;87.00;;;;;;5023474;28;45407;-70
2023/01/07 09:53:13;;;;;;;0.85;0.60;;;18.00;86.80;;;;;;5024259;28;45481;-70
2023/01/07 09:55:42;;;;;;;0.77;0.40;;;18.00;86.70;;;;;;5024059;28;45192;-70
2023/01/07 09:58:15;;;;;;;0.32;0.32;;;18.00;86.90;;;;;;5022857;28;48512;-72
2023/01/07 10:00:54;;;;;;;0.65;0.40;;;18.10;86.70;;;;;;5021293;28;45358;-70
2023/01/07 10:03:29;;;;;;;0.30;0.30;;;18.10;86.70;;;;;;5023424;28;45438;-70
2023/01/07 10:06:07;;;;;;;1.13;0.40;;;18.10;86.80;;;;;;5024225;28;45473;-70
2023/01/07 10:08:43;;;;;;;0.43;0.30;;;18.10;86.60;;;;;;5022648;28;48330;-70
2023/01/07 10:11:22;;;;;;;0.68;0.40;;;18.10;86.40;;;;;;5023061;28;45645;-70
2023/01/07 10:14:01;;;;;;;1.02;0.40;;;18.10;86.30;;;;;;5023308;28;45354;-70
2023/01/07 10:16:36;;;;;;;0.40;0.40;;;18.10;86.10;;;;;;5023214;28;45386;-70
2023/01/07 10:19:08;;;;;;;0.73;0.50;;;18.10;86.10;;;;;;5021141;28;45308;-69
2023/01/07 10:21:41;;;;;;;0.77;0.45;;;18.20;86.10;;;;;;5022152;28;45342;-70
2023/01/07 10:24:14;;;;;;;0.73;0.40;;;18.20;85.70;;;;;;5023383;28;45414;-69
2023/01/07 10:26:45;;;;;;;0.40;0.30;;;18.20;84.70;;;;;;5023292;28;45345;-70
2023/01/07 10:29:16;;;;;;;1.67;0.47;;;18.20;84.10;;;;;;5023155;28;45438;-70
2023/01/07 10:31:44;;;;;;;1.77;0.60;;;18.20;83.10;;;;;;5022555;28;45367;-70
2023/01/07 10:34:15;;;;;;;0.50;0.50;;;18.20;82.70;;;;;;5023392;28;45553;-70
2023/01/07 10:36:57;;;;;;;0.90;0.52;;;18.20;82.60;;;;;;5021546;28;45426;-70
2023/01/07 10:39:31;;;;;;;1.00;0.50;;;18.20;82.30;;;;;;5022963;28;45476;-71
2023/01/07 10:42:06;;;;;;;0.50;0.40;;;18.20;82.00;;;;;;5022891;28;45476;-70
2023/01/07 10:44:54;;;;;;;0.75;0.40;;;18.20;82.10;;;;;;5023315;28;45321;-70
2023/01/07 10:47:36;;;;;;;0.40;0.40;;;18.20;81.50;;;;;;5013723;28;45183;-70
2023/01/07 10:50:29;;;;;;;0.40;0.40;;;18.30;81.40;;;;;;5020166;28;45735;-70
2023/01/07 10:53:03;;;;;;;0.63;0.43;;;18.30;81.70;;;;;;5000759;28;45338;-69
2023/01/07 10:55:37;;;;;;;0.93;0.50;;;18.20;81.70;;;;;;5001486;28;45507;-70
2023/01/07 10:58:08;;;;;;;0.93;0.40;;;18.20;82.40;;;;;;5003631;28;45252;-69
2023/01/07 11:00:34;;;;;;;0.73;0.55;;;18.20;82.40;;;;;;5002032;28;47511;-69
2023/01/07 11:03:01;;;;;;;1.48;0.50;;;18.20;82.70;;;;;;5002976;28;45454;-69
2023/01/07 11:05:35;;;;;;;0.40;0.40;;;18.20;82.80;;;;;;5003074;28;45468;-69
2023/01/07 11:08:09;;;;;;;1.30;0.68;;;18.20;83.20;;;;;;5010540;28;45402;-69
2023/01/07 11:10:38;;;;;;;0.60;0.50;;;18.20;83.00;;;;;;5024412;28;45307;-69
2023/01/07 11:13:12;;;;;;;1.02;0.52;;;18.20;83.30;;;;;;5022486;28;45345;-69
2023/01/07 11:15:45;;;;;;;0.60;0.50;;;18.20;83.40;;;;;;5023112;28;45475;-69
2023/01/07 11:18:18;;;;;;;1.35;0.70;;;18.20;83.30;;;;;;5006110;28;45318;-70
2023/01/07 11:20:48;;;;;;;1.10;0.80;;;18.20;83.50;;;;;;5001683;28;47466;-70
2023/01/07 11:23:29;;;;;;;0.60;0.40;;;18.20;83.30;;;;;;5000638;28;45328;-69
2023/01/07 11:26:16;;;;;;;1.05;0.50;;;18.20;82.90;;;;;;5014646;28;45347;-69
2023/01/07 11:28:49;;;;;;;0.50;0.47;;;18.30;82.50;;;;;;5021977;28;45270;-69
2023/01/07 11:31:16;;;;;;;0.82;0.50;;;18.30;82.40;;;;;;5022595;28;47145;-69
2023/01/07 11:33:47;;;;;;;0.55;0.40;;;18.30;82.10;;;;;;5021895;28;45339;-69
2023/01/07 11:36:14;;;;;;;0.40;0.40;;;18.30;81.90;;;;;;5022108;28;45347;-70
2023/01/07 11:38:43;;;;;;;0.98;0.50;;;18.30;81.70;;;;;;5022636;28;45251;-69
2023/01/07 11:41:22;;;;;;;0.65;0.40;;;18.30;81.60;;;;;;5022214;28;46398;-70
2023/01/07 11:43:50;;;;;;;1.10;0.55;;;18.30;81.50;;;;;;5022471;28;46067;-69
2023/01/07 11:46:18;;;;;;;0.57;0.43;;;18.30;81.40;;;;;;5021678;28;45282;-69
2023/01/07 11:48:53;;;;;;;1.00;0.40;;;18.30;80.00;;;;;;5022413;28;45520;-69
2023/01/07 11:51:21;;;;;;;0.63;0.43;;;18.40;80.20;;;;;;5021812;28;47654;-69
2023/01/07 11:53:56;;;;;;;0.77;0.60;;;18.30;80.00;;;;;;5022576;28;45247;-70
2023/01/07 11:56:25;;;;;;;0.80;0.50;;;18.30;81.10;;;;;;5022843;28;45298;-69
2023/01/07 11:59:08;;;;;;;1.30;0.40;;;18.30;81.50;;;;;;5021808;28;45306;-69
2023/01/07 12:01:43;;;;;;;0.73;0.40;;;18.30;81.80;;;;;;5021375;28;45323;-68
2023/01/07 12:04:21;;;;;;;0.60;0.40;;;18.20;82.10;;;;;;5021949;28;45354;-70
2023/01/07 12:06:50;;;;;;;0.90;0.50;;;18.20;82.70;;;;;;5022023;28;45244;-69
2023/01/07 12:09:34;;;;;;;0.85;0.52;;;18.20;83.40;;;;;;5020656;28;45364;-69
2023/01/07 12:12:30;;;;;;;0.30;0.30;;;18.20;84.00;;;;;;5022859;28;45428;-69
2023/01/07 12:14:58;;;;;;;0.60;0.38;;;18.10;83.90;;;;;;5021646;28;45379;-70
2023/01/07 12:17:27;;;;;;;0.50;0.50;;;18.10;84.80;;;;;;5022317;28;45279;-70
2023/01/07 12:20:16;;;;;;;0.47;0.40;;;18.10;84.70;;;;;;5021454;28;45394;-69
2023/01/07 12:22:52;;;;;;;0.65;0.40;;;18.10;84.80;;;;;;5022392;28;45391;-69
2023/01/07 12:25:30;;;;;;;1.40;0.40;;;18.10;85.70;;;;;;5025523;28;45318;-69
2023/01/07 12:28:06;;;;;;;0.60;0.40;;;18.10;84.00;;;;;;5025498;28;45312;-69
2023/01/07 12:30:50;;;;;;;0.65;0.47;;;18.10;83.60;;;;;;5025101;28;45538;-69
2023/01/07 12:33:28;;;;;;;0.30;0.30;;;18.10;83.10;;;;;;5024776;28;45426;-70
2023/01/07 12:35:57;;;;;;;0.50;0.43;;;18.10;83.20;;;;;;5024797;28;45820;-69
2023/01/07 12:38:31;;;;;;;0.77;0.40;;;18.20;83.30;;;;;;5024900;28;45300;-69
2023/01/07 12:41:04;;;;;;;0.88;0.45;;;18.20;83.20;;;;;;5024973;28;45452;-69
2023/01/07 12:43:35;;;;;;;0.73;0.55;;;18.20;82.80;;;;;;5024199;28;45504;-70
2023/01/07 12:46:04;;;;;;;0.70;0.50;;;18.20;82.80;;;;;;5025611;28;45247;-69
2023/01/07 12:48:40;;;;;;;0.40;0.40;;;18.20;82.80;;;;;;5025386;28;45376;-69
2023/01/07 12:51:14;;;;;;;0.65;0.30;;;18.20;82.70;;;;;;5025788;28;45413;-69
2023/01/07 12:53:45;;;;;;;0.88;0.40;;;18.20;82.70;;;;;;5025676;28;46280;-70
2023/01/07 12:56:17;;;;;;;0.60;0.40;;;18.20;82.70;;;;;;5024957;28;45407;-69
2023/01/07 12:58:50;;;;;;;0.38;0.38;;;18.20;82.90;;;;;;5025248;28;45478;-70
2023/01/07 13:01:28;;;;;;;1.20;0.50;;;18.20;82.90;;;;;;5025360;28;45301;-69
2023/01/07 13:04:06;;;;;;;0.55;0.30;;;18.20;83.00;;;;;;5025236;28;45302;-69
2023/01/07 13:06:43;;;;;;;0.57;0.30;;;18.20;83.10;;;;;;5024818;28;45202;-69